sensor_id;sensor_type;location;lat;lon;timestamp;P1;durP1;ratioP1;P2;durP2;ratioP2
20535;SDS011;10426;49.420;8.390;2024-02-28T00:01:49;18.77;;;16.77;;
20535;SDS011;10426;49.420;8.390;2024-02-28T00:04:15;19.00;;;17.00;;
20535;SDS011;10426;49.420;8.390;2024-02-28T00:06:42;19.42;;;17.52;;
20535;SDS011;10426;49.420;8.390;2024-02-28T00:09:09;18.63;;;16.75;;
20535;SDS011;10426;49.420;8.390;2024-02-28T00:11:36;20.70;;;18.60;;
20535;SDS011;10426;49.420;8.390;2024-02-28T00:14:03;20.90;;;18.70;;
20535;SDS011;10426;49.420;8.390;2024-02-28T00:16:29;20.58;;;18.40;;
20535;SDS011;10426;49.420;8.390;2024-02-28T00:18:57;20.30;;;18.02;;
20535;SDS011;10426;49.420;8.390;2024-02-28T00:21:24;20.92;;;18.73;;
20535;SDS011;10426;49.420;8.390;2024-02-28T00:23:50;21.13;;;18.95;;
20535;SDS011;10426;49.420;8.390;2024-02-28T00:26:17;20.17;;;18.17;;
20535;SDS011;10426;49.420;8.390;2024-02-28T00:28:43;20.27;;;18.17;;
20535;SDS011;10426;49.420;8.390;2024-02-28T00:31:10;19.90;;;17.90;;
20535;SDS011;10426;49.420;8.390;2024-02-28T00:33:37;19.63;;;17.60;;
20535;SDS011;10426;49.420;8.390;2024-02-28T00:36:05;19.20;;;17.30;;
20535;SDS011;10426;49.420;8.390;2024-02-28T00:38:32;20.23;;;18.13;;
20535;SDS011;10426;49.420;8.390;2024-02-28T00:40:58;19.13;;;17.00;;
20535;SDS011;10426;49.420;8.390;2024-02-28T00:43:25;19.75;;;17.80;;
20535;SDS011;10426;49.420;8.390;2024-02-28T00:45:51;19.63;;;17.63;;
20535;SDS011;10426;49.420;8.390;2024-02-28T00:48:18;21.50;;;19.20;;
20535;SDS011;10426;49.420;8.390;2024-02-28T00:50:45;20.45;;;18.35;;
20535;SDS011;10426;49.420;8.390;2024-02-28T00:53:13;20.23;;;18.13;;
20535;SDS011;10426;49.420;8.390;2024-02-28T00:55:39;21.90;;;19.80;;
20535;SDS011;10426;49.420;8.390;2024-02-28T00:58:06;22.08;;;19.77;;
20535;SDS011;10426;49.420;8.390;2024-02-28T01:00:32;22.65;;;19.58;;
20535;SDS011;10426;49.420;8.390;2024-02-28T01:02:59;22.20;;;19.90;;
20535;SDS011;10426;49.420;8.390;2024-02-28T01:05:29;23.70;;;21.17;;
20535;SDS011;10426;49.420;8.390;2024-02-28T01:07:55;24.80;;;22.20;;
20535;SDS011;10426;49.420;8.390;2024-02-28T01:10:23;24.27;;;21.48;;
20535;SDS011;10426;49.420;8.390;2024-02-28T01:12:50;25.02;;;22.25;;
20535;SDS011;10426;49.420;8.390;2024-02-28T01:15:16;29.80;;;23.47;;
20535;SDS011;10426;49.420;8.390;2024-02-28T01:17:43;27.25;;;23.65;;
20535;SDS011;10426;49.420;8.390;2024-02-28T01:20:10;26.15;;;23.38;;
20535;SDS011;10426;49.420;8.390;2024-02-28T01:22:37;25.90;;;23.20;;
20535;SDS011;10426;49.420;8.390;2024-02-28T01:25:03;28.00;;;24.13;;
20535;SDS011;10426;49.420;8.390;2024-02-28T01:27:31;26.17;;;23.38;;
20535;SDS011;10426;49.420;8.390;2024-02-28T01:29:58;26.83;;;23.90;;
20535;SDS011;10426;49.420;8.390;2024-02-28T01:32:25;28.20;;;25.10;;
20535;SDS011;10426;49.420;8.390;2024-02-28T01:34:51;28.25;;;25.23;;
20535;SDS011;10426;49.420;8.390;2024-02-28T01:37:18;28.65;;;24.92;;
20535;SDS011;10426;49.420;8.390;2024-02-28T01:39:45;28.17;;;24.85;;
20535;SDS011;10426;49.420;8.390;2024-02-28T01:42:11;28.02;;;25.02;;
20535;SDS011;10426;49.420;8.390;2024-02-28T01:44:40;30.48;;;25.40;;
20535;SDS011;10426;49.420;8.390;2024-02-28T01:47:09;27.92;;;24.92;;
20535;SDS011;10426;49.420;8.390;2024-02-28T01:49:36;29.33;;;26.20;;
20535;SDS011;10426;49.420;8.390;2024-02-28T01:52:03;29.15;;;25.90;;
20535;SDS011;10426;49.420;8.390;2024-02-28T01:54:30;28.52;;;25.35;;
20535;SDS011;10426;49.420;8.390;2024-02-28T01:56:57;29.27;;;25.70;;
20535;SDS011;10426;49.420;8.390;2024-02-28T01:59:24;28.80;;;24.77;;
20535;SDS011;10426;49.420;8.390;2024-02-28T02:01:53;31.17;;;26.17;;
20535;SDS011;10426;49.420;8.390;2024-02-28T02:04:20;28.60;;;25.17;;
20535;SDS011;10426;49.420;8.390;2024-02-28T02:06:48;29.95;;;26.20;;
20535;SDS011;10426;49.420;8.390;2024-02-28T02:09:15;30.88;;;26.48;;
20535;SDS011;10426;49.420;8.390;2024-02-28T02:11:42;29.95;;;26.13;;
20535;SDS011;10426;49.420;8.390;2024-02-28T02:14:10;31.98;;;27.25;;
20535;SDS011;10426;49.420;8.390;2024-02-28T02:16:36;32.25;;;26.98;;
20535;SDS011;10426;49.420;8.390;2024-02-28T02:19:04;30.60;;;26.38;;
20535;SDS011;10426;49.420;8.390;2024-02-28T02:21:41;29.73;;;26.50;;
20535;SDS011;10426;49.420;8.390;2024-02-28T02:24:10;29.30;;;25.73;;
20535;SDS011;10426;49.420;8.390;2024-02-28T02:26:37;29.75;;;26.42;;
20535;SDS011;10426;49.420;8.390;2024-02-28T02:29:04;28.90;;;25.38;;
20535;SDS011;10426;49.420;8.390;2024-02-28T02:31:30;28.40;;;25.13;;
20535;SDS011;10426;49.420;8.390;2024-02-28T02:33:57;28.63;;;25.52;;
20535;SDS011;10426;49.420;8.390;2024-02-28T02:36:23;30.70;;;27.30;;
20535;SDS011;10426;49.420;8.390;2024-02-28T02:38:50;29.40;;;25.95;;
20535;SDS011;10426;49.420;8.390;2024-02-28T02:41:18;30.77;;;26.92;;
20535;SDS011;10426;49.420;8.390;2024-02-28T02:43:44;30.88;;;26.92;;
20535;SDS011;10426;49.420;8.390;2024-02-28T02:46:11;31.13;;;26.60;;
20535;SDS011;10426;49.420;8.390;2024-02-28T02:48:38;33.50;;;27.70;;
20535;SDS011;10426;49.420;8.390;2024-02-28T02:51:04;31.98;;;27.00;;
20535;SDS011;10426;49.420;8.390;2024-02-28T02:53:31;32.78;;;28.02;;
20535;SDS011;10426;49.420;8.390;2024-02-28T02:55:57;33.63;;;28.02;;
20535;SDS011;10426;49.420;8.390;2024-02-28T02:58:25;33.35;;;27.45;;
20535;SDS011;10426;49.420;8.390;2024-02-28T03:00:52;32.00;;;27.67;;
20535;SDS011;10426;49.420;8.390;2024-02-28T03:03:18;27.75;;;24.75;;
20535;SDS011;10426;49.420;8.390;2024-02-28T03:05:45;31.08;;;26.65;;
20535;SDS011;10426;49.420;8.390;2024-02-28T03:08:12;29.33;;;26.13;;
20535;SDS011;10426;49.420;8.390;2024-02-28T03:10:38;30.35;;;26.25;;
20535;SDS011;10426;49.420;8.390;2024-02-28T03:13:05;32.03;;;28.23;;
20535;SDS011;10426;49.420;8.390;2024-02-28T03:15:33;32.15;;;26.85;;
20535;SDS011;10426;49.420;8.390;2024-02-28T03:18:00;31.70;;;26.47;;
20535;SDS011;10426;49.420;8.390;2024-02-28T03:20:27;31.87;;;28.00;;
20535;SDS011;10426;49.420;8.390;2024-02-28T03:22:53;33.33;;;27.42;;
20535;SDS011;10426;49.420;8.390;2024-02-28T03:25:20;33.25;;;27.98;;
20535;SDS011;10426;49.420;8.390;2024-02-28T03:27:47;33.13;;;28.85;;
20535;SDS011;10426;49.420;8.390;2024-02-28T03:30:14;34.95;;;28.77;;
20535;SDS011;10426;49.420;8.390;2024-02-28T03:32:42;34.15;;;27.30;;
20535;SDS011;10426;49.420;8.390;2024-02-28T03:35:08;32.25;;;27.30;;
20535;SDS011;10426;49.420;8.390;2024-02-28T03:37:35;30.50;;;26.52;;
20535;SDS011;10426;49.420;8.390;2024-02-28T03:40:01;31.73;;;28.00;;
20535;SDS011;10426;49.420;8.390;2024-02-28T03:42:28;31.25;;;27.77;;
20535;SDS011;10426;49.420;8.390;2024-02-28T03:44:55;33.57;;;28.43;;
20535;SDS011;10426;49.420;8.390;2024-02-28T03:47:22;35.08;;;28.48;;
20535;SDS011;10426;49.420;8.390;2024-02-28T03:49:51;35.17;;;29.10;;
20535;SDS011;10426;49.420;8.390;2024-02-28T03:52:17;33.78;;;27.63;;
20535;SDS011;10426;49.420;8.390;2024-02-28T03:54:44;32.60;;;28.05;;
20535;SDS011;10426;49.420;8.390;2024-02-28T03:57:10;34.85;;;28.42;;
20535;SDS011;10426;49.420;8.390;2024-02-28T03:59:37;34.58;;;29.33;;
20535;SDS011;10426;49.420;8.390;2024-02-28T04:02:04;34.17;;;28.02;;
20535;SDS011;10426;49.420;8.390;2024-02-28T04:04:30;32.47;;;27.83;;
20535;SDS011;10426;49.420;8.390;2024-02-28T04:06:58;31.40;;;27.98;;
20535;SDS011;10426;49.420;8.390;2024-02-28T04:09:25;33.03;;;27.03;;
20535;SDS011;10426;49.420;8.390;2024-02-28T04:11:52;29.27;;;26.08;;
20535;SDS011;10426;49.420;8.390;2024-02-28T04:14:18;31.88;;;26.38;;
20535;SDS011;10426;49.420;8.390;2024-02-28T04:16:45;31.17;;;26.60;;
20535;SDS011;10426;49.420;8.390;2024-02-28T04:19:12;30.08;;;26.60;;
20535;SDS011;10426;49.420;8.390;2024-02-28T04:21:39;33.05;;;27.73;;
20535;SDS011;10426;49.420;8.390;2024-02-28T04:24:07;31.25;;;26.38;;
20535;SDS011;10426;49.420;8.390;2024-02-28T04:26:34;29.80;;;25.20;;
20535;SDS011;10426;49.420;8.390;2024-02-28T04:29:01;31.02;;;25.90;;
20535;SDS011;10426;49.420;8.390;2024-02-28T04:31:30;30.17;;;25.10;;
20535;SDS011;10426;49.420;8.390;2024-02-28T04:33:56;29.63;;;25.42;;
20535;SDS011;10426;49.420;8.390;2024-02-28T04:36:23;28.73;;;25.38;;
20535;SDS011;10426;49.420;8.390;2024-02-28T04:38:50;29.08;;;25.80;;
20535;SDS011;10426;49.420;8.390;2024-02-28T04:41:18;28.37;;;25.17;;
20535;SDS011;10426;49.420;8.390;2024-02-28T04:43:44;36.13;;;26.33;;
20535;SDS011;10426;49.420;8.390;2024-02-28T04:46:11;28.43;;;25.03;;
20535;SDS011;10426;49.420;8.390;2024-02-28T04:48:38;30.65;;;25.88;;
20535;SDS011;10426;49.420;8.390;2024-02-28T04:51:04;29.50;;;25.38;;
20535;SDS011;10426;49.420;8.390;2024-02-28T04:53:31;28.65;;;25.55;;
20535;SDS011;10426;49.420;8.390;2024-02-28T04:55:57;28.20;;;24.87;;
20535;SDS011;10426;49.420;8.390;2024-02-28T04:58:25;27.95;;;24.98;;
20535;SDS011;10426;49.420;8.390;2024-02-28T05:00:52;31.33;;;26.73;;
20535;SDS011;10426;49.420;8.390;2024-02-28T05:03:19;29.60;;;25.55;;
20535;SDS011;10426;49.420;8.390;2024-02-28T05:05:47;29.13;;;24.67;;
20535;SDS011;10426;49.420;8.390;2024-02-28T05:08:14;27.48;;;24.27;;
20535;SDS011;10426;49.420;8.390;2024-02-28T05:10:41;30.80;;;25.57;;
20535;SDS011;10426;49.420;8.390;2024-02-28T05:13:07;34.57;;;27.77;;
20535;SDS011;10426;49.420;8.390;2024-02-28T05:15:35;34.47;;;28.15;;
20535;SDS011;10426;49.420;8.390;2024-02-28T05:18:02;34.38;;;28.45;;
20535;SDS011;10426;49.420;8.390;2024-02-28T05:20:29;34.60;;;27.85;;
20535;SDS011;10426;49.420;8.390;2024-02-28T05:22:55;36.10;;;28.27;;
20535;SDS011;10426;49.420;8.390;2024-02-28T05:25:22;34.70;;;28.27;;
20535;SDS011;10426;49.420;8.390;2024-02-28T05:27:49;35.67;;;28.40;;
20535;SDS011;10426;49.420;8.390;2024-02-28T05:30:15;37.40;;;29.25;;
20535;SDS011;10426;49.420;8.390;2024-02-28T05:32:43;34.50;;;28.13;;
20535;SDS011;10426;49.420;8.390;2024-02-28T05:35:10;34.20;;;27.83;;
20535;SDS011;10426;49.420;8.390;2024-02-28T05:37:37;32.85;;;27.33;;
20535;SDS011;10426;49.420;8.390;2024-02-28T05:40:06;34.80;;;27.88;;
20535;SDS011;10426;49.420;8.390;2024-02-28T05:42:32;33.47;;;27.70;;
20535;SDS011;10426;49.420;8.390;2024-02-28T05:44:59;36.05;;;27.73;;
20535;SDS011;10426;49.420;8.390;2024-02-28T05:47:26;35.22;;;28.25;;
20535;SDS011;10426;49.420;8.390;2024-02-28T05:49:54;33.30;;;27.63;;
20535;SDS011;10426;49.420;8.390;2024-02-28T05:52:23;33.75;;;28.55;;
20535;SDS011;10426;49.420;8.390;2024-02-28T05:54:50;34.00;;;27.88;;
20535;SDS011;10426;49.420;8.390;2024-02-28T05:57:17;32.45;;;26.90;;
20535;SDS011;10426;49.420;8.390;2024-02-28T05:59:43;33.07;;;26.10;;
20535;SDS011;10426;49.420;8.390;2024-02-28T06:02:10;28.40;;;24.60;;
20535;SDS011;10426;49.420;8.390;2024-02-28T06:04:37;29.30;;;24.77;;
20535;SDS011;10426;49.420;8.390;2024-02-28T06:07:05;29.95;;;25.05;;
20535;SDS011;10426;49.420;8.390;2024-02-28T06:09:32;29.52;;;24.80;;
20535;SDS011;10426;49.420;8.390;2024-02-28T06:11:59;29.63;;;24.48;;
20535;SDS011;10426;49.420;8.390;2024-02-28T06:14:27;29.05;;;24.65;;
20535;SDS011;10426;49.420;8.390;2024-02-28T06:16:53;29.55;;;24.70;;
20535;SDS011;10426;49.420;8.390;2024-02-28T06:19:20;30.23;;;24.33;;
20535;SDS011;10426;49.420;8.390;2024-02-28T06:21:47;30.02;;;24.60;;
20535;SDS011;10426;49.420;8.390;2024-02-28T06:24:14;28.27;;;24.70;;
20535;SDS011;10426;49.420;8.390;2024-02-28T06:26:41;31.42;;;25.75;;
20535;SDS011;10426;49.420;8.390;2024-02-28T06:29:08;29.80;;;24.73;;
20535;SDS011;10426;49.420;8.390;2024-02-28T06:31:35;29.70;;;24.63;;
20535;SDS011;10426;49.420;8.390;2024-02-28T06:34:02;30.70;;;25.13;;
20535;SDS011;10426;49.420;8.390;2024-02-28T06:36:29;31.15;;;25.25;;
20535;SDS011;10426;49.420;8.390;2024-02-28T06:38:56;29.38;;;23.73;;
20535;SDS011;10426;49.420;8.390;2024-02-28T06:41:23;28.67;;;24.17;;
20535;SDS011;10426;49.420;8.390;2024-02-28T06:43:50;28.33;;;24.48;;
20535;SDS011;10426;49.420;8.390;2024-02-28T06:46:16;29.63;;;25.07;;
20535;SDS011;10426;49.420;8.390;2024-02-28T06:48:43;31.30;;;25.40;;
20535;SDS011;10426;49.420;8.390;2024-02-28T06:51:09;30.58;;;26.10;;
20535;SDS011;10426;49.420;8.390;2024-02-28T06:53:36;33.40;;;27.08;;
20535;SDS011;10426;49.420;8.390;2024-02-28T06:56:03;32.88;;;27.80;;
20535;SDS011;10426;49.420;8.390;2024-02-28T06:58:31;33.58;;;27.02;;
20535;SDS011;10426;49.420;8.390;2024-02-28T07:00:58;35.50;;;28.75;;
20535;SDS011;10426;49.420;8.390;2024-02-28T07:03:24;33.92;;;28.00;;
20535;SDS011;10426;49.420;8.390;2024-02-28T07:05:51;39.03;;;29.98;;
20535;SDS011;10426;49.420;8.390;2024-02-28T07:08:18;36.95;;;29.48;;
20535;SDS011;10426;49.420;8.390;2024-02-28T07:10:46;36.55;;;30.27;;
20535;SDS011;10426;49.420;8.390;2024-02-28T07:13:14;40.00;;;31.67;;
20535;SDS011;10426;49.420;8.390;2024-02-28T07:15:42;38.25;;;30.90;;
20535;SDS011;10426;49.420;8.390;2024-02-28T07:18:09;37.55;;;30.45;;
20535;SDS011;10426;49.420;8.390;2024-02-28T07:20:36;34.65;;;28.90;;
20535;SDS011;10426;49.420;8.390;2024-02-28T07:23:02;37.13;;;29.95;;
20535;SDS011;10426;49.420;8.390;2024-02-28T07:25:29;36.47;;;29.30;;
20535;SDS011;10426;49.420;8.390;2024-02-28T07:27:57;38.85;;;29.73;;
20535;SDS011;10426;49.420;8.390;2024-02-28T07:30:24;37.88;;;29.55;;
20535;SDS011;10426;49.420;8.390;2024-02-28T07:32:52;36.30;;;29.23;;
20535;SDS011;10426;49.420;8.390;2024-02-28T07:35:19;37.30;;;29.27;;
20535;SDS011;10426;49.420;8.390;2024-02-28T07:37:46;34.60;;;28.75;;
20535;SDS011;10426;49.420;8.390;2024-02-28T07:40:13;34.25;;;27.65;;
20535;SDS011;10426;49.420;8.390;2024-02-28T07:42:39;33.78;;;28.08;;
20535;SDS011;10426;49.420;8.390;2024-02-28T07:45:06;33.40;;;27.42;;
20535;SDS011;10426;49.420;8.390;2024-02-28T07:47:34;35.05;;;29.05;;
20535;SDS011;10426;49.420;8.390;2024-02-28T07:50:02;37.67;;;28.27;;
20535;SDS011;10426;49.420;8.390;2024-02-28T07:52:28;31.60;;;26.35;;
20535;SDS011;10426;49.420;8.390;2024-02-28T07:54:55;30.87;;;26.33;;
20535;SDS011;10426;49.420;8.390;2024-02-28T07:57:21;32.47;;;26.63;;
20535;SDS011;10426;49.420;8.390;2024-02-28T07:59:48;29.98;;;25.40;;
20535;SDS011;10426;49.420;8.390;2024-02-28T08:02:15;30.92;;;24.77;;
20535;SDS011;10426;49.420;8.390;2024-02-28T08:04:45;28.17;;;24.48;;
20535;SDS011;10426;49.420;8.390;2024-02-28T08:07:13;30.35;;;24.30;;
20535;SDS011;10426;49.420;8.390;2024-02-28T08:09:40;27.80;;;24.50;;
20535;SDS011;10426;49.420;8.390;2024-02-28T08:12:07;29.05;;;24.42;;
20535;SDS011;10426;49.420;8.390;2024-02-28T08:14:33;28.40;;;23.35;;
20535;SDS011;10426;49.420;8.390;2024-02-28T08:17:00;29.92;;;23.45;;
20535;SDS011;10426;49.420;8.390;2024-02-28T08:19:26;27.67;;;24.17;;
20535;SDS011;10426;49.420;8.390;2024-02-28T08:21:53;27.23;;;23.20;;
20535;SDS011;10426;49.420;8.390;2024-02-28T08:24:21;26.27;;;23.00;;
20535;SDS011;10426;49.420;8.390;2024-02-28T08:26:48;27.73;;;23.70;;
20535;SDS011;10426;49.420;8.390;2024-02-28T08:29:14;30.50;;;23.77;;
20535;SDS011;10426;49.420;8.390;2024-02-28T08:31:42;28.27;;;23.67;;
20535;SDS011;10426;49.420;8.390;2024-02-28T08:34:09;27.67;;;23.58;;
20535;SDS011;10426;49.420;8.390;2024-02-28T08:36:36;28.47;;;24.10;;
20535;SDS011;10426;49.420;8.390;2024-02-28T08:39:02;27.85;;;23.50;;
20535;SDS011;10426;49.420;8.390;2024-02-28T08:41:33;27.38;;;23.25;;
20535;SDS011;10426;49.420;8.390;2024-02-28T08:44:00;27.42;;;22.83;;
20535;SDS011;10426;49.420;8.390;2024-02-28T08:46:27;25.65;;;21.90;;
20535;SDS011;10426;49.420;8.390;2024-02-28T08:48:53;26.48;;;22.70;;
20535;SDS011;10426;49.420;8.390;2024-02-28T08:51:20;25.05;;;22.23;;
20535;SDS011;10426;49.420;8.390;2024-02-28T08:53:47;25.98;;;22.20;;
20535;SDS011;10426;49.420;8.390;2024-02-28T08:56:13;24.13;;;21.55;;
20535;SDS011;10426;49.420;8.390;2024-02-28T08:58:41;24.60;;;21.52;;
20535;SDS011;10426;49.420;8.390;2024-02-28T09:01:12;23.83;;;21.10;;
20535;SDS011;10426;49.420;8.390;2024-02-28T09:03:39;23.50;;;21.00;;
20535;SDS011;10426;49.420;8.390;2024-02-28T09:06:06;23.70;;;20.88;;
20535;SDS011;10426;49.420;8.390;2024-02-28T09:08:32;23.85;;;21.35;;
20535;SDS011;10426;49.420;8.390;2024-02-28T09:10:59;23.57;;;20.23;;
20535;SDS011;10426;49.420;8.390;2024-02-28T09:13:27;23.60;;;20.77;;
20535;SDS011;10426;49.420;8.390;2024-02-28T09:15:55;24.45;;;20.98;;
20535;SDS011;10426;49.420;8.390;2024-02-28T09:18:22;22.65;;;20.15;;
20535;SDS011;10426;49.420;8.390;2024-02-28T09:20:49;22.67;;;20.23;;
20535;SDS011;10426;49.420;8.390;2024-02-28T09:23:15;25.20;;;21.10;;
20535;SDS011;10426;49.420;8.390;2024-02-28T09:25:42;23.98;;;21.10;;
20535;SDS011;10426;49.420;8.390;2024-02-28T09:28:08;26.40;;;21.77;;
20535;SDS011;10426;49.420;8.390;2024-02-28T09:30:38;23.98;;;21.33;;
20535;SDS011;10426;49.420;8.390;2024-02-28T09:33:06;23.85;;;21.30;;
20535;SDS011;10426;49.420;8.390;2024-02-28T09:35:33;23.55;;;21.13;;
20535;SDS011;10426;49.420;8.390;2024-02-28T09:37:59;23.88;;;21.02;;
20535;SDS011;10426;49.420;8.390;2024-02-28T09:40:26;25.65;;;22.23;;
20535;SDS011;10426;49.420;8.390;2024-02-28T09:42:53;23.70;;;21.13;;
20535;SDS011;10426;49.420;8.390;2024-02-28T09:45:25;25.35;;;21.48;;
20535;SDS011;10426;49.420;8.390;2024-02-28T09:47:56;26.77;;;21.88;;
20535;SDS011;10426;49.420;8.390;2024-02-28T09:50:24;25.42;;;21.25;;
20535;SDS011;10426;49.420;8.390;2024-02-28T09:52:51;26.23;;;22.05;;
20535;SDS011;10426;49.420;8.390;2024-02-28T09:55:18;25.05;;;22.02;;
20535;SDS011;10426;49.420;8.390;2024-02-28T09:57:45;24.15;;;21.20;;
20535;SDS011;10426;49.420;8.390;2024-02-28T10:00:14;23.67;;;21.17;;
20535;SDS011;10426;49.420;8.390;2024-02-28T10:02:41;25.75;;;21.40;;
20535;SDS011;10426;49.420;8.390;2024-02-28T10:05:09;25.10;;;21.33;;
20535;SDS011;10426;49.420;8.390;2024-02-28T10:07:37;25.67;;;22.65;;
20535;SDS011;10426;49.420;8.390;2024-02-28T10:10:05;26.38;;;21.48;;
20535;SDS011;10426;49.420;8.390;2024-02-28T10:12:33;24.52;;;21.58;;
20535;SDS011;10426;49.420;8.390;2024-02-28T10:15:00;24.67;;;21.55;;
20535;SDS011;10426;49.420;8.390;2024-02-28T10:17:26;24.02;;;21.40;;
20535;SDS011;10426;49.420;8.390;2024-02-28T10:19:53;27.23;;;21.90;;
20535;SDS011;10426;49.420;8.390;2024-02-28T10:22:19;26.27;;;22.17;;
20535;SDS011;10426;49.420;8.390;2024-02-28T10:24:48;23.55;;;20.88;;
20535;SDS011;10426;49.420;8.390;2024-02-28T10:27:15;28.92;;;21.58;;
20535;SDS011;10426;49.420;8.390;2024-02-28T10:29:42;23.63;;;20.52;;
20535;SDS011;10426;49.420;8.390;2024-02-28T10:32:09;23.25;;;20.80;;
20535;SDS011;10426;49.420;8.390;2024-02-28T10:34:37;23.88;;;20.73;;
20535;SDS011;10426;49.420;8.390;2024-02-28T10:37:04;24.92;;;20.88;;
20535;SDS011;10426;49.420;8.390;2024-02-28T10:39:31;23.15;;;20.55;;
20535;SDS011;10426;49.420;8.390;2024-02-28T10:42:00;25.42;;;21.45;;
20535;SDS011;10426;49.420;8.390;2024-02-28T10:44:28;24.77;;;21.13;;
20535;SDS011;10426;49.420;8.390;2024-02-28T10:46:56;23.55;;;20.33;;
20535;SDS011;10426;49.420;8.390;2024-02-28T10:49:23;22.50;;;20.10;;
20535;SDS011;10426;49.420;8.390;2024-02-28T10:51:50;21.67;;;19.38;;
20535;SDS011;10426;49.420;8.390;2024-02-28T10:54:19;21.17;;;18.60;;
20535;SDS011;10426;49.420;8.390;2024-02-28T10:56:47;22.42;;;19.70;;
20535;SDS011;10426;49.420;8.390;2024-02-28T10:59:16;21.70;;;19.40;;
20535;SDS011;10426;49.420;8.390;2024-02-28T11:01:43;20.20;;;18.08;;
20535;SDS011;10426;49.420;8.390;2024-02-28T11:04:10;20.35;;;18.05;;
20535;SDS011;10426;49.420;8.390;2024-02-28T11:12:43;19.75;;;17.60;;
20535;SDS011;10426;49.420;8.390;2024-02-28T11:15:15;18.42;;;16.30;;
20535;SDS011;10426;49.420;8.390;2024-02-28T11:17:42;19.35;;;16.70;;
20535;SDS011;10426;49.420;8.390;2024-02-28T11:20:12;15.70;;;14.10;;
20535;SDS011;10426;49.420;8.390;2024-02-28T11:22:39;19.50;;;17.40;;
20535;SDS011;10426;49.420;8.390;2024-02-28T11:25:06;18.92;;;16.90;;
20535;SDS011;10426;49.420;8.390;2024-02-28T11:27:33;19.27;;;17.30;;
20535;SDS011;10426;49.420;8.390;2024-02-28T11:29:59;19.08;;;17.08;;
20535;SDS011;10426;49.420;8.390;2024-02-28T11:32:29;19.77;;;17.45;;
20535;SDS011;10426;49.420;8.390;2024-02-28T11:35:00;16.55;;;14.85;;
20535;SDS011;10426;49.420;8.390;2024-02-28T11:37:26;18.70;;;16.75;;
20535;SDS011;10426;49.420;8.390;2024-02-28T11:39:53;17.02;;;15.23;;
20535;SDS011;10426;49.420;8.390;2024-02-28T11:42:20;18.35;;;16.40;;
20535;SDS011;10426;49.420;8.390;2024-02-28T11:44:52;17.60;;;15.75;;
20535;SDS011;10426;49.420;8.390;2024-02-28T11:47:19;18.25;;;15.65;;
20535;SDS011;10426;49.420;8.390;2024-02-28T11:49:47;17.52;;;15.38;;
20535;SDS011;10426;49.420;8.390;2024-02-28T11:52:13;16.65;;;14.95;;
20535;SDS011;10426;49.420;8.390;2024-02-28T11:54:40;16.75;;;15.05;;
20535;SDS011;10426;49.420;8.390;2024-02-28T11:57:07;16.73;;;15.05;;
20535;SDS011;10426;49.420;8.390;2024-02-28T11:59:33;16.20;;;14.48;;
20535;SDS011;10426;49.420;8.390;2024-02-28T12:02:00;16.67;;;14.85;;
20535;SDS011;10426;49.420;8.390;2024-02-28T12:04:27;19.00;;;15.90;;
20535;SDS011;10426;49.420;8.390;2024-02-28T12:06:55;17.00;;;15.27;;
20535;SDS011;10426;49.420;8.390;2024-02-28T12:09:23;18.40;;;16.55;;
20535;SDS011;10426;49.420;8.390;2024-02-28T12:11:50;18.30;;;16.35;;
20535;SDS011;10426;49.420;8.390;2024-02-28T12:14:16;18.13;;;16.23;;
20535;SDS011;10426;49.420;8.390;2024-02-28T12:16:43;17.30;;;15.50;;
20535;SDS011;10426;49.420;8.390;2024-02-28T12:19:12;18.05;;;16.25;;
20535;SDS011;10426;49.420;8.390;2024-02-28T12:21:40;18.02;;;16.10;;
20535;SDS011;10426;49.420;8.390;2024-02-28T12:24:09;18.02;;;16.17;;
20535;SDS011;10426;49.420;8.390;2024-02-28T12:26:35;17.27;;;15.48;;
20535;SDS011;10426;49.420;8.390;2024-02-28T12:29:02;18.10;;;16.23;;
20535;SDS011;10426;49.420;8.390;2024-02-28T12:31:29;17.50;;;15.70;;
20535;SDS011;10426;49.420;8.390;2024-02-28T12:33:56;17.35;;;15.55;;
20535;SDS011;10426;49.420;8.390;2024-02-28T12:36:22;16.90;;;15.30;;
20535;SDS011;10426;49.420;8.390;2024-02-28T12:38:50;16.05;;;14.45;;
20535;SDS011;10426;49.420;8.390;2024-02-28T12:41:18;16.95;;;14.88;;
20535;SDS011;10426;49.420;8.390;2024-02-28T12:43:44;15.75;;;14.15;;
20535;SDS011;10426;49.420;8.390;2024-02-28T12:46:11;15.65;;;14.15;;
20535;SDS011;10426;49.420;8.390;2024-02-28T12:48:38;16.20;;;14.60;;
20535;SDS011;10426;49.420;8.390;2024-02-28T12:51:04;15.40;;;13.90;;
20535;SDS011;10426;49.420;8.390;2024-02-28T12:53:31;15.77;;;14.27;;
20535;SDS011;10426;49.420;8.390;2024-02-28T12:55:58;15.77;;;14.20;;
20535;SDS011;10426;49.420;8.390;2024-02-28T12:58:26;19.30;;;14.50;;
20535;SDS011;10426;49.420;8.390;2024-02-28T13:00:53;15.75;;;14.15;;
20535;SDS011;10426;49.420;8.390;2024-02-28T13:03:19;15.38;;;13.88;;
20535;SDS011;10426;49.420;8.390;2024-02-28T13:05:46;15.27;;;13.68;;
20535;SDS011;10426;49.420;8.390;2024-02-28T13:08:13;15.18;;;13.60;;
20535;SDS011;10426;49.420;8.390;2024-02-28T13:10:39;15.97;;;14.27;;
20535;SDS011;10426;49.420;8.390;2024-02-28T13:13:06;14.77;;;13.25;;
20535;SDS011;10426;49.420;8.390;2024-02-28T13:15:34;14.88;;;13.27;;
20535;SDS011;10426;49.420;8.390;2024-02-28T13:18:01;14.77;;;13.38;;
20535;SDS011;10426;49.420;8.390;2024-02-28T13:20:32;14.40;;;12.98;;
20535;SDS011;10426;49.420;8.390;2024-02-28T13:22:59;14.90;;;13.40;;
20535;SDS011;10426;49.420;8.390;2024-02-28T13:25:26;14.43;;;13.10;;
20535;SDS011;10426;49.420;8.390;2024-02-28T13:27:52;13.40;;;11.93;;
20535;SDS011;10426;49.420;8.390;2024-02-28T13:30:19;14.40;;;13.00;;
20535;SDS011;10426;49.420;8.390;2024-02-28T13:32:47;14.75;;;13.30;;
20535;SDS011;10426;49.420;8.390;2024-02-28T13:35:13;13.45;;;12.18;;
20535;SDS011;10426;49.420;8.390;2024-02-28T13:37:40;13.48;;;12.18;;
20535;SDS011;10426;49.420;8.390;2024-02-28T13:40:07;13.27;;;11.98;;
20535;SDS011;10426;49.420;8.390;2024-02-28T13:42:35;13.73;;;12.35;;
20535;SDS011;10426;49.420;8.390;2024-02-28T13:45:02;13.70;;;11.73;;
20535;SDS011;10426;49.420;8.390;2024-02-28T13:47:32;13.30;;;11.90;;
20535;SDS011;10426;49.420;8.390;2024-02-28T13:50:00;12.52;;;11.32;;
20535;SDS011;10426;49.420;8.390;2024-02-28T13:52:27;12.85;;;11.45;;
20535;SDS011;10426;49.420;8.390;2024-02-28T13:54:54;13.23;;;11.90;;
20535;SDS011;10426;49.420;8.390;2024-02-28T13:57:21;13.05;;;11.35;;
20535;SDS011;10426;49.420;8.390;2024-02-28T13:59:47;12.32;;;11.23;;
20535;SDS011;10426;49.420;8.390;2024-02-28T14:02:14;12.82;;;11.63;;
20535;SDS011;10426;49.420;8.390;2024-02-28T14:04:41;13.05;;;11.75;;
20535;SDS011;10426;49.420;8.390;2024-02-28T14:07:09;12.25;;;11.05;;
20535;SDS011;10426;49.420;8.390;2024-02-28T14:09:36;12.17;;;10.97;;
20535;SDS011;10426;49.420;8.390;2024-02-28T14:12:03;11.75;;;10.65;;
20535;SDS011;10426;49.420;8.390;2024-02-28T14:14:29;12.55;;;11.38;;
20535;SDS011;10426;49.420;8.390;2024-02-28T14:16:56;12.82;;;11.60;;
20535;SDS011;10426;49.420;8.390;2024-02-28T14:19:23;12.57;;;11.40;;
20535;SDS011;10426;49.420;8.390;2024-02-28T14:21:50;12.18;;;11.07;;
20535;SDS011;10426;49.420;8.390;2024-02-28T14:24:17;12.02;;;11.02;;
20535;SDS011;10426;49.420;8.390;2024-02-28T14:26:45;12.50;;;11.32;;